Time;durP1;ratioP1;P1;durP2;ratioP2;P2;SDS_P1;SDS_P2;PMS_P1;PMS_P2;Temp;Humidity;BMP_temperature;BMP_pressure;BME280_temperature;BME280_humidity;BME280_pressure;Samples;Min_cycle;Max_cycle;Signal;HPM_P1;HPM_P2
2022/06/21 00:00:44;;;;;;;2.40;1.30;;;;;;;9.49;100.00;98275.69;2606896;28;20057;-76
2022/06/21 00:02:00;;;;;;;2.88;1.20;;;;;;;9.49;100.00;98274.81;2606991;28;20142;-77
2022/06/21 00:03:18;;;;;;;1.42;1.23;;;;;;;9.46;100.00;98274.00;2607248;28;20053;-76
2022/06/21 00:04:36;;;;;;;1.30;1.20;;;;;;;9.47;100.00;98283.56;2607234;28;20053;-76
2022/06/21 00:05:53;;;;;;;1.52;1.08;;;;;;;9.49;100.00;98274.81;2607016;28;20041;-76
2022/06/21 00:07:15;;;;;;;2.22;1.55;;;;;;;9.52;100.00;98277.38;2606917;28;20374;-77
2022/06/21 00:08:33;;;;;;;1.50;1.23;;;;;;;9.49;100.00;98273.06;2606704;28;20053;-76
2022/06/21 00:09:50;;;;;;;2.72;1.30;;;;;;;9.50;100.00;98276.53;2606744;28;20048;-76
2022/06/21 00:11:26;;;;;;;4.72;1.23;;;;;;;9.51;100.00;98273.88;2606897;28;20190;-76
2022/06/21 00:12:42;;;;;;;1.60;1.08;;;;;;;9.53;100.00;98277.31;2607058;28;20559;-76
2022/06/21 00:13:58;;;;;;;1.20;1.08;;;;;;;9.54;100.00;98273.78;2607183;28;20110;-76
2022/06/21 00:15:15;;;;;;;1.88;1.10;;;;;;;9.51;100.00;98273.03;2606632;28;20510;-76
2022/06/21 00:16:31;;;;;;;1.90;1.00;;;;;;;9.48;100.00;98273.97;2606897;28;20087;-76
2022/06/21 00:17:49;;;;;;;2.13;0.95;;;;;;;9.42;100.00;98277.59;2606775;28;20102;-76
2022/06/21 00:19:06;;;;;;;1.63;1.00;;;;;;;9.42;100.00;98274.97;2606550;28;20095;-76
2022/06/21 00:20:24;;;;;;;1.92;1.30;;;;;;;9.39;100.00;98275.06;2607111;28;20053;-76
2022/06/21 00:21:40;;;;;;;2.28;1.17;;;;;;;9.40;100.00;98273.28;2606716;28;20053;-76
2022/06/21 00:22:56;;;;;;;1.02;0.93;;;;;;;9.39;100.00;98276.81;2607153;28;20056;-76
2022/06/21 00:24:12;;;;;;;1.35;1.20;;;;;;;9.39;100.00;98279.44;2606984;28;20081;-76
2022/06/21 00:25:28;;;;;;;7.00;1.40;;;;;;;9.40;100.00;98276.78;2606880;28;20087;-76
2022/06/21 00:26:45;;;;;;;1.10;1.00;;;;;;;9.38;100.00;98278.59;2607119;28;20067;-76
2022/06/21 00:28:01;;;;;;;1.30;1.20;;;;;;;9.37;100.00;98273.38;2606837;28;20071;-76
2022/06/21 00:29:16;;;;;;;2.25;1.27;;;;;;;9.39;100.00;98280.28;2606976;28;20045;-76
2022/06/21 00:30:32;;;;;;;2.70;1.00;;;;;;;9.39;100.00;98277.69;2607250;28;20049;-76
2022/06/21 00:31:49;;;;;;;1.92;1.20;;;;;;;9.39;100.00;98280.28;2606828;28;20419;-76
2022/06/21 00:33:05;;;;;;;1.20;0.90;;;;;;;9.40;100.00;98279.41;2607098;28;20049;-76
2022/06/21 00:34:22;;;;;;;2.45;1.10;;;;;;;9.39;100.00;98275.06;2607229;28;20127;-76
2022/06/21 00:35:41;;;;;;;3.30;1.00;;;;;;;9.39;100.00;98276.81;2606894;28;20060;-76
2022/06/21 00:36:59;;;;;;;1.80;1.10;;;;;;;9.37;100.00;98273.38;2606590;28;20147;-76
2022/06/21 00:38:25;;;;;;;1.58;1.08;;;;;;;9.38;100.00;98275.09;2606638;28;20041;-76
2022/06/21 00:39:41;;;;;;;2.85;1.08;;;;;;;9.39;100.00;98271.59;2607353;28;20203;-77
2022/06/21 00:40:58;;;;;;;1.40;1.20;;;;;;;9.38;100.00;98277.72;2606956;28;20590;-76
2022/06/21 00:42:23;;;;;;;5.25;1.20;;;;;;;9.39;100.00;98280.28;2606517;28;20048;-76
2022/06/21 00:43:46;;;;;;;6.97;1.48;;;;;;;9.39;100.00;98272.47;2606856;28;20682;-76
2022/06/21 00:45:12;;;;;;;1.10;1.00;;;;;;;9.41;100.00;98281.09;2606973;28;20045;-76
2022/06/21 00:46:40;;;;;;;1.65;1.30;;;;;;;9.42;100.00;98282.81;2606778;28;20048;-76
2022/06/21 00:48:00;;;;;;;2.00;1.30;;;;;;;9.38;100.00;98275.97;2606935;28;20458;-76
2022/06/21 00:49:25;;;;;;;7.60;1.42;;;;;;;9.36;100.00;98280.38;2606587;28;20040;-76
2022/06/21 00:50:45;;;;;;;1.52;1.30;;;;;;;9.33;100.00;98281.31;2606552;28;20044;-76
2022/06/21 00:52:14;;;;;;;2.38;1.40;;;;;;;9.30;100.00;98283.13;2606823;28;20053;-76
2022/06/21 00:53:35;;;;;;;1.35;1.25;;;;;;;9.26;100.00;98277.13;2606665;28;20076;-76
2022/06/21 00:55:02;;;;;;;3.67;1.52;;;;;;;9.16;100.00;98283.50;2606836;28;20060;-76
2022/06/21 00:56:29;;;;;;;1.58;1.30;;;;;;;9.15;100.00;98285.22;2607049;28;20586;-76
2022/06/21 00:57:51;;;;;;;1.63;1.30;;;;;;;9.13;100.00;98284.41;2606968;28;20049;-76
2022/06/21 00:59:20;;;;;;;2.22;1.80;;;;;;;9.09;100.00;98282.78;2606805;28;20041;-76
2022/06/21 01:01:03;;;;;;;2.88;1.73;;;;;;;9.17;100.00;98280.81;2606774;28;20052;-76
2022/06/21 01:02:31;;;;;;;9.52;1.92;;;;;;;9.19;100.00;98283.41;2606037;28;20060;-76
2022/06/21 01:03:52;;;;;;;2.17;1.80;;;;;;;9.17;100.00;98288.66;2606566;28;20065;-76
2022/06/21 01:05:08;;;;;;;4.28;2.20;;;;;;;9.17;100.00;98282.59;2606430;28;20041;-76
2022/06/21 01:06:33;;;;;;;2.38;1.80;;;;;;;9.17;100.00;98286.06;2606795;28;20049;-76
2022/06/21 01:07:53;;;;;;;2.67;1.95;;;;;;;9.16;100.00;98286.94;2606171;28;20067;-76
2022/06/21 01:09:16;;;;;;;3.72;1.80;;;;;;;9.17;100.00;98282.59;2606233;28;20139;-76
2022/06/21 01:10:31;;;;;;;1.88;1.58;;;;;;;9.16;100.00;98289.56;2606573;28;20407;-76
2022/06/21 01:11:58;;;;;;;2.17;1.98;;;;;;;9.14;100.00;98283.53;2604959;28;20135;-76
2022/06/21 01:13:20;;;;;;;2.05;1.60;;;;;;;9.12;100.00;98294.91;2606211;28;20163;-76
2022/06/21 01:14:40;;;;;;;2.03;1.52;;;;;;;9.11;100.00;98293.19;2606259;28;20049;-76
2022/06/21 01:15:56;;;;;;;1.85;1.30;;;;;;;9.06;100.00;98288.06;2606293;28;20041;-76
2022/06/21 01:17:12;;;;;;;3.20;1.83;;;;;;;9.06;100.00;98285.44;2606067;28;20049;-77
2022/06/21 01:18:28;;;;;;;1.70;1.60;;;;;;;9.07;100.00;98278.50;2606310;28;20503;-76
2022/06/21 01:19:56;;;;;;;1.98;1.50;;;;;;;9.05;100.00;98288.97;2606364;28;20048;-76
2022/06/21 01:21:15;;;;;;;2.58;1.50;;;;;;;9.04;100.00;98284.63;2606418;28;20556;-76
2022/06/21 01:23:12;;;;;;;1.80;1.38;;;;;;;9.01;100.00;98285.59;2606203;28;20053;-76
2022/06/21 01:24:49;;;;;;;1.52;1.40;;;;;;;8.98;100.00;98287.41;2604678;28;20053;-76
2022/06/21 01:26:29;;;;;;;1.55;1.17;;;;;;;8.96;100.00;98290.03;2606010;28;20083;-76
2022/06/21 01:27:45;;;;;;;1.42;1.33;;;;;;;8.94;100.00;98280.53;2605936;28;20053;-76
2022/06/21 01:29:03;;;;;;;3.13;1.40;;;;;;;8.95;100.00;98290.94;2606598;28;20047;-76
2022/06/21 01:30:18;;;;;;;2.50;1.50;;;;;;;8.96;100.00;98291.81;2606463;28;20442;-76
2022/06/21 01:31:35;;;;;;;2.95;1.40;;;;;;;8.92;100.00;98292.75;2606403;28;20087;-76
2022/06/21 01:32:51;;;;;;;1.60;1.45;;;;;;;8.93;100.00;98295.34;2606375;28;20059;-76
2022/06/21 01:34:23;;;;;;;2.45;1.98;;;;;;;8.96;100.00;98295.25;2605784;28;20079;-76
2022/06/21 01:35:48;;;;;;;2.03;1.73;;;;;;;8.98;100.00;98290.03;2605924;28;20638;-76
2022/06/21 01:37:04;;;;;;;1.90;1.70;;;;;;;8.97;100.00;98291.75;2605701;28;20096;-76
2022/06/21 01:38:25;;;;;;;2.40;1.38;;;;;;;8.95;100.00;98295.31;2605845;28;20420;-76
2022/06/21 01:39:48;;;;;;;3.42;1.40;;;;;;;8.94;100.00;98297.06;2606125;28;20060;-76
2022/06/21 01:41:13;;;;;;;2.80;1.50;;;;;;;8.83;100.00;98293.84;2606154;28;20045;-76
2022/06/21 01:42:41;;;;;;;3.65;1.50;;;;;;;8.74;100.00;98290.56;2605450;28;20052;-76
2022/06/21 01:44:01;;;;;;;4.35;2.30;;;;;;;8.67;100.00;98288.13;2606115;28;20045;-76
2022/06/21 01:45:24;;;;;;;1.30;1.20;;;;;;;8.59;100.00;98294.38;2606124;28;20460;-76
2022/06/21 01:46:40;;;;;;;1.70;1.40;;;;;;;8.53;100.00;98291.03;2605976;28;20167;-76
2022/06/21 01:48:06;;;;;;;4.90;1.67;;;;;;;8.50;100.00;98289.34;2603599;28;20578;-76
2022/06/21 01:49:28;;;;;;;1.25;1.13;;;;;;;8.51;100.00;98291.06;2603392;28;20106;-76
2022/06/21 01:50:46;;;;;;;1.58;1.45;;;;;;;8.50;100.00;98291.94;2606228;28;20095;-76
2022/06/21 01:52:10;;;;;;;1.80;1.33;;;;;;;8.53;100.00;98289.31;2605726;28;20064;-76
2022/06/21 01:53:27;;;;;;;5.82;1.60;;;;;;;8.55;100.00;98295.34;2605583;28;20052;-76
2022/06/21 01:54:49;;;;;;;3.85;1.60;;;;;;;8.55;100.00;98295.34;2606181;28;20411;-77
2022/06/21 01:56:18;;;;;;;3.00;1.52;;;;;;;8.56;100.00;98291.84;2606176;28;20537;-76
2022/06/21 01:57:36;;;;;;;1.77;1.38;;;;;;;8.57;100.00;98295.28;2605851;28;20498;-76
2022/06/21 01:58:57;;;;;;;1.60;1.50;;;;;;;8.60;100.00;98290.03;2606105;28;20080;-77
2022/06/21 02:00:14;;;;;;;2.47;1.73;;;;;;;8.57;100.00;98290.06;2606540;28;20040;-76
2022/06/21 02:02:04;;;;;;;2.55;1.90;;;;;;;8.56;100.00;98289.22;2605455;28;20045;-76
2022/06/21 02:03:24;;;;;;;3.47;1.98;;;;;;;8.55;100.00;98289.25;2606120;28;20057;-76
2022/06/21 02:04:45;;;;;;;3.42;1.75;;;;;;;8.57;100.00;98288.31;2605833;28;20080;-76
2022/06/21 02:06:07;;;;;;;1.80;1.70;;;;;;;8.59;100.00;98291.75;2606128;28;20099;-76
2022/06/21 02:07:28;;;;;;;2.92;1.70;;;;;;;8.58;100.00;98291.78;2606070;28;20625;-76
2022/06/21 02:08:47;;;;;;;2.38;1.75;;;;;;;8.57;100.00;98295.28;2606247;28;20045;-76
2022/06/21 02:10:12;;;;;;;2.92;2.00;;;;;;;8.55;100.00;98290.13;2605924;28;20080;-76
2022/06/21 02:11:35;;;;;;;2.17;1.77;;;;;;;8.55;100.00;98295.34;2605888;28;20553;-76
2022/06/21 02:12:56;;;;;;;;;;;;;;;8.54;100.00;98293.63;2606861;28;20093;-76
2022/06/21 02:14:28;;;;;;;2.25;1.50;;;;;;;8.53;100.00;98293.66;2605945;28;19971;-76
2022/06/21 02:15:49;;;;;;;2.47;1.88;;;;;;;8.52;100.00;98286.72;2606038;28;20079;-76
2022/06/21 02:17:14;;;;;;;4.50;1.90;;;;;;;8.49;100.00;98290.22;2606288;28;20041;-76
2022/06/21 02:18:34;;;;;;;4.35;1.80;;;;;;;8.49;100.00;98292.81;2605498;28;20049;-76
2022/06/21 02:20:19;;;;;;;1.95;1.70;;;;;;;8.48;100.00;98291.09;2605778;28;20076;-76
2022/06/21 02:21:40;;;;;;;2.50;1.80;;;;;;;8.46;100.00;98295.50;2605972;28;20385;-76
2022/06/21 02:22:56;;;;;;;2.95;1.80;;;;;;;8.40;100.00;98301.69;2605777;28;20136;-76
2022/06/21 02:24:14;;;;;;;2.20;1.83;;;;;;;8.40;100.00;98301.69;2606138;28;20086;-76
2022/06/21 02:25:29;;;;;;;5.90;1.80;;;;;;;8.38;100.00;98303.50;2605839;28;20132;-76
2022/06/21 02:26:45;;;;;;;3.13;1.90;;;;;;;8.39;100.00;98302.59;2606055;28;20081;-76
2022/06/21 02:28:05;;;;;;;1.73;1.60;;;;;;;8.34;100.00;98301.84;2606015;28;20380;-76
2022/06/21 02:29:20;;;;;;;1.52;1.42;;;;;;;8.27;100.00;98297.63;2606146;28;20769;-76
2022/06/21 02:30:36;;;;;;;6.65;1.58;;;;;;;8.23;100.00;98293.38;2606197;28;20122;-76
2022/06/21 02:31:52;;;;;;;4.07;1.65;;;;;;;8.18;100.00;98296.97;2605875;28;20411;-75
2022/06/21 02:33:16;;;;;;;9.80;1.98;;;;;;;8.14;100.00;98297.03;2606075;28;20041;-76
2022/06/21 02:34:36;;;;;;;2.30;1.70;;;;;;;8.10;100.00;98293.63;2606117;28;20083;-76
2022/06/21 02:36:15;;;;;;;3.20;1.88;;;;;;;8.09;100.00;98291.91;2606268;28;20673;-77
2022/06/21 02:37:33;;;;;;;2.20;1.80;;;;;;;8.09;100.00;98297.13;2606115;28;20534;-76
2022/06/21 02:38:56;;;;;;;2.22;1.80;;;;;;;8.11;100.00;98297.97;2605901;28;20054;-76
2022/06/21 02:40:20;;;;;;;1.90;1.70;;;;;;;8.14;100.00;98297.03;2606092;28;20041;-76
2022/06/21 02:41:40;;;;;;;2.08;1.80;;;;;;;8.16;100.00;98297.88;2606122;28;20127;-76
2022/06/21 02:43:02;;;;;;;2.88;1.80;;;;;;;8.15;100.00;98297.00;2606111;28;20132;-76
2022/06/21 02:44:24;;;;;;;3.75;1.85;;;;;;;8.15;100.00;98294.38;2606171;28;20501;-76
2022/06/21 02:45:48;;;;;;;2.25;1.92;;;;;;;8.16;100.00;98297.88;2605806;28;20053;-76
2022/06/21 02:47:13;;;;;;;2.45;1.88;;;;;;;8.19;100.00;98297.78;2605686;28;20049;-76
2022/06/21 02:48:38;;;;;;;2.03;1.70;;;;;;;8.20;100.00;98297.78;2606641;28;20107;-76
2022/06/21 02:50:04;;;;;;;3.17;1.70;;;;;;;8.22;100.00;98297.72;2607095;28;20126;-76
2022/06/21 02:51:30;;;;;;;1.77;1.67;;;;;;;8.22;100.00;98302.09;2607058;28;20052;-76
2022/06/21 02:52:46;;;;;;;2.72;1.80;;;;;;;8.21;100.00;98298.63;2606607;28;20048;-76
2022/06/21 02:54:11;;;;;;;4.70;1.98;;;;;;;8.23;100.00;98299.44;2607330;28;20164;-76
2022/06/21 02:55:42;;;;;;;2.00;1.80;;;;;;;8.21;100.00;98303.84;2606745;28;20045;-76
2022/06/21 02:57:06;;;;;;;3.10;2.05;;;;;;;8.17;100.00;98304.78;2607649;28;20461;-76
2022/06/21 02:58:35;;;;;;;2.25;1.70;;;;;;;8.13;100.00;98303.16;2607784;28;20105;-76
2022/06/21 02:59:53;;;;;;;2.72;1.77;;;;;;;8.05;100.00;98304.16;2608123;28;20049;-76
2022/06/21 03:01:19;;;;;;;4.57;1.67;;;;;;;8.02;100.00;98304.22;2606564;28;20044;-76
2022/06/21 03:02:35;;;;;;;6.03;1.98;;;;;;;8.02;100.00;98305.94;2607672;28;20146;-76
2022/06/21 03:03:51;;;;;;;1.95;1.75;;;;;;;8.01;100.00;98309.44;2607601;28;20045;-77
2022/06/21 03:05:15;;;;;;;2.38;1.70;;;;;;;8.00;100.00;98313.81;2607758;28;20057;-76
2022/06/21 03:06:32;;;;;;;1.85;1.70;;;;;;;8.01;100.00;98305.09;2607754;28;20052;-76
2022/06/21 03:07:53;;;;;;;5.00;2.10;;;;;;;8.03;100.00;98307.66;2607545;28;20087;-76
2022/06/21 03:09:16;;;;;;;2.00;1.80;;;;;;;8.03;100.00;98308.53;2608029;28;20045;-76
2022/06/21 03:10:39;;;;;;;2.00;1.65;;;;;;;8.02;100.00;98304.22;2607334;28;20088;-76
2022/06/21 03:11:59;;;;;;;2.25;1.83;;;;;;;8.02;100.00;98309.44;2607665;28;20052;-76
2022/06/21 03:13:22;;;;;;;2.92;2.00;;;;;;;8.03;100.00;98313.75;2608026;28;20045;-76
2022/06/21 03:14:37;;;;;;;2.80;2.13;;;;;;;8.08;100.00;98307.59;2607231;28;20084;-76
2022/06/21 03:15:58;;;;;;;2.17;1.98;;;;;;;8.08;100.00;98310.19;2606501;28;20055;-77
2022/06/21 03:17:17;;;;;;;2.85;1.75;;;;;;;8.11;100.00;98312.75;2607873;28;20135;-76
2022/06/21 03:18:37;;;;;;;3.17;2.05;;;;;;;8.10;100.00;98309.28;2607665;28;20056;-76
2022/06/21 03:19:53;;;;;;;2.83;2.00;;;;;;;8.11;100.00;98310.16;2607709;28;20049;-76
2022/06/21 03:21:13;;;;;;;3.78;2.33;;;;;;;8.08;100.00;98316.28;2608070;28;20067;-76
2022/06/21 03:22:34;;;;;;;2.72;2.17;;;;;;;8.17;100.00;98308.28;2607887;28;20059;-76
2022/06/21 03:23:50;;;;;;;3.83;2.42;;;;;;;8.32;100.00;98312.31;2607825;28;20053;-76
2022/06/21 03:25:16;;;;;;;6.95;2.55;;;;;;;8.31;100.00;98307.09;2607862;28;20080;-76
2022/06/21 03:26:33;;;;;;;2.22;2.03;;;;;;;8.34;100.00;98310.50;2607908;28;20079;-76
2022/06/21 03:27:58;;;;;;;2.75;2.13;;;;;;;8.34;100.00;98307.91;2607452;28;20052;-76
2022/06/21 03:29:14;;;;;;;3.47;2.40;;;;;;;8.34;100.00;98315.72;2607448;28;20068;-76
2022/06/21 03:30:34;;;;;;;2.78;2.05;;;;;;;8.36;100.00;98312.22;2607608;28;20049;-76
2022/06/21 03:31:50;;;;;;;2.50;2.20;;;;;;;8.36;100.00;98310.50;2606081;28;20053;-77
2022/06/21 03:33:06;;;;;;;3.97;1.90;;;;;;;8.34;100.00;98307.91;2605195;28;20049;-76
2022/06/21 03:34:24;;;;;;;2.88;2.40;;;;;;;8.35;100.00;98311.38;2604621;28;20491;-75
2022/06/21 03:35:40;;;;;;;2.13;1.92;;;;;;;8.31;100.00;98305.38;2607663;28;20060;-76
2022/06/21 03:36:59;;;;;;;2.20;2.00;;;;;;;8.31;100.00;98310.59;2607302;28;20057;-75
2022/06/21 03:38:15;;;;;;;3.15;1.98;;;;;;;8.30;100.00;98308.88;2607354;28;20079;-75
2022/06/21 03:42:52;;;;;;;3.63;2.17;;;;;;;8.34;100.00;98309.69;2607381;28;20057;-76
2022/06/21 03:44:37;;;;;;;3.55;2.20;;;;;;;8.35;100.00;98314.00;2607415;28;20052;-76
2022/06/21 03:45:54;;;;;;;3.17;2.10;;;;;;;8.38;100.00;98319.16;2606284;28;20045;-75
2022/06/21 03:47:18;;;;;;;4.45;1.98;;;;;;;8.45;100.00;98320.75;2607122;28;20070;-75
2022/06/21 03:48:42;;;;;;;3.47;1.83;;;;;;;8.43;100.00;98321.66;2607404;28;20481;-75
2022/06/21 03:50:18;;;;;;;2.80;1.98;;;;;;;8.39;100.00;98325.22;2607210;28;20506;-75
2022/06/21 03:51:39;;;;;;;3.80;2.13;;;;;;;8.37;100.00;98321.78;2607482;28;20098;-75
2022/06/21 03:53:03;;;;;;;3.53;2.20;;;;;;;8.33;100.00;98321.84;2605772;28;20048;-76
2022/06/21 03:54:35;;;;;;;4.00;2.15;;;;;;;8.32;100.00;98320.13;2607358;28;20053;-75
2022/06/21 03:56:05;;;;;;;5.22;2.10;;;;;;;8.33;100.00;98321.00;2607293;28;20580;-74
2022/06/21 03:57:27;;;;;;;5.15;2.28;;;;;;;8.31;100.00;98313.19;2606633;28;20326;-75
2022/06/21 03:58:49;;;;;;;;;;;;;;;8.31;100.00;98315.81;2606240;28;20162;-75
2022/06/21 04:00:11;;;;;;;3.05;2.20;;;;;;;8.31;100.00;98313.19;2606830;28;19920;-75
2022/06/21 04:01:43;;;;;;;3.03;2.58;;;;;;;8.33;100.00;98316.63;2606757;28;20087;-75
2022/06/21 04:03:08;;;;;;;2.63;2.28;;;;;;;8.34;100.00;98312.28;2606075;28;20494;-75
2022/06/21 04:04:42;;;;;;;6.38;2.42;;;;;;;8.38;100.00;98316.53;2606142;28;20045;-75
2022/06/21 04:06:16;;;;;;;3.28;2.40;;;;;;;8.38;100.00;98319.16;2606402;28;20049;-75
2022/06/21 04:07:43;;;;;;;3.08;2.20;;;;;;;8.42;100.00;98315.56;2605301;28;20049;-75
2022/06/21 04:09:03;;;;;;;2.78;2.30;;;;;;;8.42;100.00;98317.34;2605866;28;20487;-76
2022/06/21 04:10:25;;;;;;;3.13;2.22;;;;;;;8.41;100.00;98323.44;2605802;28;20041;-75
2022/06/21 04:11:45;;;;;;;3.22;2.53;;;;;;;8.40;100.00;98322.56;2606485;28;20484;-75
2022/06/21 04:13:17;;;;;;;5.43;2.78;;;;;;;8.38;100.00;98324.38;2605935;28;20040;-74
2022/06/21 04:14:36;;;;;;;3.25;2.53;;;;;;;8.38;100.00;98326.97;2606802;28;20045;-75
2022/06/21 04:15:59;;;;;;;3.63;2.80;;;;;;;8.38;100.00;98329.56;2607154;28;20479;-74
2022/06/21 04:17:36;;;;;;;5.38;3.00;;;;;;;8.40;100.00;98330.41;2606946;28;20389;-74
2022/06/21 04:19:00;;;;;;;4.03;2.70;;;;;;;8.42;100.00;98325.16;2607247;28;20111;-74
2022/06/21 04:20:36;;;;;;;2.83;2.45;;;;;;;8.42;100.00;98325.16;2606826;28;20057;-74
2022/06/21 04:22:03;;;;;;;2.67;2.45;;;;;;;8.55;100.00;98329.25;2606844;28;20049;-73
2022/06/21 04:23:39;;;;;;;2.85;2.55;;;;;;;8.57;100.00;98330.09;2606754;28;20053;-74
2022/06/21 04:25:20;;;;;;;2.58;2.38;;;;;;;8.56;100.00;98330.97;2607026;28;20061;-74
2022/06/21 04:27:06;;;;;;;4.55;2.83;;;;;;;8.55;100.00;98331.88;2606006;28;20056;-74
2022/06/21 04:28:36;;;;;;;4.18;2.47;;;;;;;8.53;100.00;98331.06;2605970;28;20498;-74
2022/06/21 04:30:00;;;;;;;3.55;2.80;;;;;;;8.55;100.00;98331.00;2606383;28;20045;-75
2022/06/21 04:31:27;;;;;;;3.40;2.80;;;;;;;8.60;100.00;98335.22;2607117;28;20045;-75
2022/06/21 04:32:50;;;;;;;3.90;2.50;;;;;;;8.61;100.00;98336.94;2605118;28;20072;-75
2022/06/21 04:34:15;;;;;;;2.95;2.50;;;;;;;8.72;100.00;98331.47;2606386;28;20068;-72
2022/06/21 04:35:48;;;;;;;3.28;2.70;;;;;;;8.80;100.00;98335.69;2606686;28;20045;-73
2022/06/21 04:37:14;;;;;;;2.88;2.50;;;;;;;8.81;100.00;98337.41;2606195;28;20065;-73
2022/06/21 04:38:39;;;;;;;4.32;2.70;;;;;;;8.85;100.00;98334.69;2606370;28;20606;-73
2022/06/21 04:40:30;;;;;;;4.03;2.50;;;;;;;8.96;100.00;98330.97;2606934;28;20053;-73
2022/06/21 04:41:57;;;;;;;4.45;2.40;;;;;;;8.99;100.00;98323.91;2602074;28;20088;-73
2022/06/21 04:43:25;;;;;;;7.57;2.60;;;;;;;9.05;100.00;98325.53;2606899;28;20077;-74
2022/06/21 04:44:55;;;;;;;3.58;2.40;;;;;;;9.19;100.00;98326.03;2606895;28;20052;-73
2022/06/21 04:46:16;;;;;;;6.00;2.40;;;;;;;9.37;100.00;98320.41;2606606;28;20358;-73
2022/06/21 04:47:34;;;;;;;4.80;2.60;;;;;;;9.41;100.00;98324.66;2605716;28;20051;-73
2022/06/21 04:49:05;;;;;;;5.15;2.63;;;;;;;9.45;100.00;98327.16;2606956;28;20140;-73
2022/06/21 04:50:31;;;;;;;6.63;2.42;;;;;;;9.51;100.00;98333.16;2606108;28;20597;-73
2022/06/21 04:52:09;;;;;;;5.65;2.60;;;;;;;9.64;100.00;98329.31;2606246;28;20503;-73
2022/06/21 04:53:52;;;;;;;3.63;2.30;;;;;;;9.68;100.00;98330.94;2605222;28;20055;-73
2022/06/21 04:55:15;;;;;;;;;;;;;;;9.85;100.00;98332.25;2603443;28;20139;-73
2022/06/21 04:56:42;;;;;;;4.07;2.70;;;;;;;9.96;100.00;98334.56;2604676;28;19974;-73
2022/06/21 04:57:57;;;;;;;2.38;2.15;;;;;;;10.01;100.00;98330.94;2606375;28;20057;-73
2022/06/21 04:59:26;;;;;;;2.75;2.47;;;;;;;10.06;100.00;98343.00;2604925;28;20251;-74
2022/06/21 05:00:42;;;;;;;3.78;2.17;;;;;;;10.15;100.00;98334.94;2605541;28;20045;-75
2022/06/21 05:01:58;;;;;;;3.97;2.45;;;;;;;10.11;100.00;98331.53;2606047;28;20053;-74
2022/06/21 05:03:23;;;;;;;3.28;2.35;;;;;;;10.08;100.00;98334.22;2605452;28;20079;-73
2022/06/21 05:04:41;;;;;;;4.90;2.70;;;;;;;10.09;100.00;98338.56;2605898;28;20044;-73
2022/06/21 05:05:58;;;;;;;3.28;2.60;;;;;;;10.10;100.00;98339.44;2606149;28;20053;-74
2022/06/21 05:07:25;;;;;;;3.53;3.00;;;;;;;10.11;100.00;98339.38;2606062;28;20478;-75
2022/06/21 05:08:42;;;;;;;5.78;2.60;;;;;;;10.11;100.00;98336.75;2605937;28;20463;-74
2022/06/21 05:09:58;;;;;;;6.88;2.70;;;;;;;10.13;100.00;98339.34;2605581;28;20071;-74
2022/06/21 05:11:16;;;;;;;4.05;2.65;;;;;;;10.22;100.00;98335.59;2605012;28;20080;-74
2022/06/21 05:12:36;;;;;;;2.45;2.25;;;;;;;10.27;100.00;98339.81;2604235;28;20140;-73
2022/06/21 05:13:55;;;;;;;3.72;2.65;;;;;;;10.50;100.00;98329.59;2604956;28;20488;-74
2022/06/21 05:15:18;;;;;;;2.75;2.28;;;;;;;10.59;100.00;98332.81;2603761;28;20128;-74
2022/06/21 05:16:38;;;;;;;3.30;2.67;;;;;;;10.60;100.00;98333.69;2605613;28;20627;-74
2022/06/21 05:17:58;;;;;;;3.65;2.40;;;;;;;10.56;100.00;98325.06;2605808;28;20155;-73
2022/06/21 05:19:25;;;;;;;3.72;2.20;;;;;;;10.58;100.00;98333.72;2605198;28;20064;-74
2022/06/21 05:20:51;;;;;;;2.30;2.03;;;;;;;10.69;100.00;98332.53;2606115;28;20091;-73
2022/06/21 05:22:20;;;;;;;3.65;2.55;;;;;;;10.78;100.00;98328.78;2605931;28;20080;-73
2022/06/21 05:23:36;;;;;;;4.07;2.50;;;;;;;10.93;100.00;98327.47;2605493;28;20072;-74
2022/06/21 05:24:54;;;;;;;2.53;2.22;;;;;;;10.98;100.00;98322.91;2605849;28;20052;-73
2022/06/21 05:26:23;;;;;;;5.15;2.63;;;;;;;11.06;100.00;98323.56;2605754;28;20053;-74
2022/06/21 05:27:46;;;;;;;3.22;2.55;;;;;;;11.12;100.00;98318.09;2606005;28;20106;-73
2022/06/21 05:29:15;;;;;;;3.95;2.60;;;;;;;11.26;100.00;98315.03;2606385;28;20135;-74
2022/06/21 05:30:49;;;;;;;3.70;2.50;;;;;;;11.28;100.00;98322.84;2606348;28;20052;-73
2022/06/21 05:32:14;;;;;;;4.63;2.75;;;;;;;11.38;100.00;98326.88;2606180;28;20056;-74
2022/06/21 05:33:35;;;;;;;5.40;2.53;;;;;;;11.42;100.00;98320.63;2605443;28;20053;-73
2022/06/21 05:34:56;;;;;;;3.13;2.30;;;;;;;11.36;100.00;98325.19;2605492;28;20087;-73
2022/06/21 05:36:20;;;;;;;7.00;2.35;;;;;;;11.53;100.00;98309.78;2605651;28;20411;-73
2022/06/21 05:37:46;;;;;;;7.00;3.90;;;;;;;11.56;100.00;98312.31;2605230;28;20061;-73
2022/06/21 05:39:07;;;;;;;5.80;2.55;;;;;;;11.62;100.00;98313.84;2605737;28;20049;-73
2022/06/21 05:40:35;;;;;;;4.75;2.60;;;;;;;11.65;100.00;98321.63;2605665;28;20396;-73
2022/06/21 05:41:54;;;;;;;4.53;2.58;;;;;;;11.75;100.00;98321.31;2605620;28;20418;-73
2022/06/21 05:43:17;;;;;;;3.95;2.58;;;;;;;11.84;99.15;98324.47;2605427;28;20474;-73
2022/06/21 05:44:40;;;;;;;3.42;3.13;;;;;;;11.91;97.91;98332.97;2605663;28;20049;-74
2022/06/21 05:46:05;;;;;;;5.72;2.67;;;;;;;11.81;96.90;98334.19;2605910;28;20080;-73
2022/06/21 05:47:28;;;;;;;3.10;2.53;;;;;;;11.95;96.13;98333.72;2605728;28;20095;-73
2022/06/21 05:48:44;;;;;;;3.38;2.55;;;;;;;11.97;96.01;98335.38;2606045;28;20080;-73
2022/06/21 05:50:05;;;;;;;4.90;3.45;;;;;;;12.02;96.55;98331.78;2606124;28;20053;-73
2022/06/21 05:51:32;;;;;;;4.00;2.50;;;;;;;12.06;97.65;98333.38;2605302;28;20049;-74
2022/06/21 05:52:53;;;;;;;2.92;2.60;;;;;;;12.08;96.55;98334.16;2605457;28;20450;-73
2022/06/21 05:54:14;;;;;;;4.03;2.63;;;;;;;12.09;96.43;98339.38;2605925;28;20478;-73
2022/06/21 05:55:36;;;;;;;3.13;2.58;;;;;;;12.08;96.04;98340.28;2606180;28;20053;-73
2022/06/21 05:56:52;;;;;;;4.15;2.65;;;;;;;12.14;95.43;98345.28;2606159;28;20083;-73
2022/06/21 05:58:32;;;;;;;5.53;2.85;;;;;;;12.30;96.88;98342.13;2606155;28;20386;-74
2022/06/21 05:59:47;;;;;;;4.53;2.78;;;;;;;12.38;96.15;98344.44;2605835;28;20095;-78
2022/06/21 06:01:17;;;;;;;5.13;2.80;;;;;;;12.37;93.46;98345.38;2606427;28;20049;-78
2022/06/21 06:02:44;;;;;;;5.70;3.00;;;;;;;12.39;94.25;98343.53;2606387;28;20632;-76
2022/06/21 06:04:29;;;;;;;5.40;3.30;;;;;;;12.43;96.21;98342.50;2606122;28;20057;-74
2022/06/21 06:05:47;;;;;;;5.20;2.72;;;;;;;12.57;93.26;98342.88;2606047;28;20463;-74
2022/06/21 06:07:04;;;;;;;4.28;2.92;;;;;;;12.58;92.92;98343.72;2605892;28;20072;-73
2022/06/21 06:08:31;;;;;;;4.63;2.60;;;;;;;12.61;92.83;98343.59;2605920;28;20063;-73
2022/06/21 06:09:50;;;;;;;6.22;2.58;;;;;;;12.63;91.40;98349.63;2606015;28;20083;-74
2022/06/21 06:11:13;;;;;;;5.45;2.78;;;;;;;12.61;91.74;98354.09;2606024;28;20041;-74
2022/06/21 06:12:49;;;;;;;5.63;2.67;;;;;;;12.66;91.35;98341.66;2605996;28;20064;-74
2022/06/21 06:14:04;;;;;;;6.95;3.20;;;;;;;12.79;93.04;98343.81;2605942;28;20045;-74
2022/06/21 06:15:26;;;;;;;4.00;2.80;;;;;;;12.78;90.21;98337.69;2606021;28;20048;-74
2022/06/21 06:16:45;;;;;;;4.28;2.70;;;;;;;12.85;90.80;98341.81;2606032;28;20056;-74
2022/06/21 06:18:10;;;;;;;5.63;3.10;;;;;;;12.97;90.52;98343.09;2605706;28;20053;-74
2022/06/21 06:19:47;;;;;;;3.00;2.58;;;;;;;13.07;89.21;98345.38;2606085;28;20052;-73
2022/06/21 06:21:18;;;;;;;5.75;2.90;;;;;;;13.10;90.33;98342.59;2605884;28;20525;-74
2022/06/21 06:22:48;;;;;;;6.05;3.17;;;;;;;13.13;87.30;98345.97;2605709;28;20053;-74
2022/06/21 06:24:26;;;;;;;6.05;3.05;;;;;;;13.16;88.94;98347.59;2605742;28;20586;-73
2022/06/21 06:25:49;;;;;;;5.07;2.72;;;;;;;13.20;87.83;98346.59;2605497;28;20045;-74
2022/06/21 06:27:19;;;;;;;4.22;2.95;;;;;;;13.30;87.09;98343.56;2605876;28;20080;-74
2022/06/21 06:28:51;;;;;;;4.13;3.72;;;;;;;13.40;88.06;98347.53;2605436;28;20056;-74
2022/06/21 06:30:11;;;;;;;5.65;3.05;;;;;;;13.53;87.28;98345.28;2605906;28;20403;-75
2022/06/21 06:31:41;;;;;;;3.03;2.72;;;;;;;13.57;86.30;98354.78;2605683;28;20049;-74
2022/06/21 06:33:32;;;;;;;7.13;3.30;;;;;;;13.70;85.71;98340.19;2605911;28;20495;-74
2022/06/21 06:34:52;;;;;;;9.02;2.60;;;;;;;13.70;84.72;98336.69;2604311;28;20076;-74
2022/06/21 06:36:14;;;;;;;5.25;2.95;;;;;;;13.73;84.73;98340.97;2605287;28;20049;-73